createdAt,value
2022-12-04T00:00:34.263Z,0
2022-12-04T00:01:12.492Z,0
2022-12-04T00:02:12.891Z,0
2022-12-04T00:03:13.407Z,0
2022-12-04T00:04:12.682Z,0
2022-12-04T00:05:13.194Z,0
2022-12-04T00:06:13.409Z,0
2022-12-04T00:07:13.256Z,0
2022-12-04T00:08:12.702Z,0
2022-12-04T00:09:13.244Z,0
2022-12-04T00:10:14.151Z,0
2022-12-04T00:11:12.998Z,0
2022-12-04T00:12:13.753Z,0
2022-12-04T00:13:13.207Z,0
2022-12-04T00:14:13.595Z,0
2022-12-04T00:15:25.168Z,0
2022-12-04T00:16:12.767Z,0
2022-12-04T00:17:13.210Z,0
2022-12-04T00:18:13.141Z,0
2022-12-04T00:19:13.411Z,0
2022-12-04T00:20:12.469Z,0
2022-12-04T00:21:12.534Z,0
2022-12-04T00:22:13.021Z,0
2022-12-04T00:23:13.738Z,0
2022-12-04T00:24:12.953Z,0
2022-12-04T00:25:14.149Z,0
2022-12-04T00:26:13.104Z,0
2022-12-04T00:27:13.530Z,0
2022-12-04T00:28:12.944Z,0
2022-12-04T00:29:13.484Z,0
2022-12-04T00:31:12.964Z,0
2022-12-04T00:32:12.828Z,0
2022-12-04T00:33:12.774Z,0
2022-12-04T00:34:12.681Z,0
2022-12-04T00:35:12.888Z,0
2022-12-04T00:36:13.109Z,0
2022-12-04T00:37:12.773Z,0
2022-12-04T00:38:13.241Z,0
2022-12-04T00:39:13.847Z,0
2022-12-04T00:40:12.828Z,0
2022-12-04T00:41:12.696Z,0
2022-12-04T00:42:12.446Z,0
2022-12-04T00:43:13.379Z,0
2022-12-04T00:44:13.410Z,0
2022-12-04T00:45:13.827Z,0
2022-12-04T00:46:13.249Z,0
2022-12-04T00:47:12.857Z,0
2022-12-04T00:48:13.850Z,0
2022-12-04T00:49:12.583Z,0
2022-12-04T00:50:13.316Z,0
2022-12-04T00:51:14.164Z,0
2022-12-04T00:52:13.271Z,0
2022-12-04T00:53:12.785Z,0
2022-12-04T00:54:13.239Z,0
2022-12-04T00:55:13.380Z,0
2022-12-04T00:56:13.176Z,0
2022-12-04T00:57:13.590Z,0
2022-12-04T00:58:13.186Z,0
2022-12-04T00:59:12.715Z,0
2022-12-04T01:00:13.997Z,0
2022-12-04T01:01:15.703Z,0
2022-12-04T01:03:13.895Z,0
2022-12-04T01:04:13.737Z,0
2022-12-04T01:05:14.200Z,0
2022-12-04T01:06:12.630Z,0
2022-12-04T01:07:12.773Z,0
2022-12-04T01:08:13.337Z,0
2022-12-04T01:09:13.281Z,0
2022-12-04T01:10:12.778Z,0
2022-12-04T01:11:13.417Z,0
2022-12-04T01:12:17.601Z,0
2022-12-04T01:13:12.429Z,0
2022-12-04T01:14:12.564Z,0
2022-12-04T01:15:13.484Z,0
2022-12-04T01:16:12.785Z,0
2022-12-04T01:17:13.814Z,0
2022-12-04T01:18:13.238Z,0
2022-12-04T01:19:14.136Z,0
2022-12-04T01:20:13.545Z,0
2022-12-04T01:21:13.286Z,0
2022-12-04T01:22:13.024Z,0
2022-12-04T01:23:13.015Z,0
2022-12-04T01:24:12.759Z,0
2022-12-04T01:25:12.589Z,0
2022-12-04T01:26:13.259Z,0
2022-12-04T01:27:13.749Z,0
2022-12-04T01:28:13.742Z,0
2022-12-04T01:29:13.219Z,0
2022-12-04T01:30:13.849Z,0
2022-12-04T01:31:13.679Z,0
2022-12-04T01:32:13.156Z,0
2022-12-04T01:33:13.304Z,0
2022-12-04T01:34:13.007Z,0
2022-12-04T01:35:13.809Z,0
2022-12-04T01:36:13.499Z,0
2022-12-04T01:37:14.281Z,0
2022-12-04T01:38:13.415Z,0
2022-12-04T01:39:14.017Z,0
2022-12-04T01:40:12.620Z,0
2022-12-04T01:41:13.104Z,0
2022-12-04T01:42:12.917Z,0
2022-12-04T01:43:13.070Z,0
2022-12-04T01:44:13.521Z,0
2022-12-04T01:45:13.737Z,0
2022-12-04T01:46:13.588Z,0
2022-12-04T01:47:13.482Z,0
2022-12-04T01:48:12.929Z,0
2022-12-04T01:49:13.583Z,0
2022-12-04T01:50:13.372Z,0
2022-12-04T01:51:13.130Z,0
2022-12-04T01:52:12.849Z,0
2022-12-04T01:53:13.399Z,0
2022-12-04T01:54:13.025Z,0
2022-12-04T01:55:12.740Z,0
2022-12-04T01:56:13.794Z,0
2022-12-04T01:57:13.635Z,0
2022-12-04T01:58:13.450Z,0
2022-12-04T01:59:13.591Z,0
2022-12-04T02:00:14.763Z,0
2022-12-04T02:01:26.961Z,0
2022-12-04T02:02:13.822Z,0
2022-12-04T02:03:13.323Z,0
2022-12-04T02:04:12.408Z,0
2022-12-04T02:05:13.498Z,0
2022-12-04T02:06:13.603Z,0
2022-12-04T02:07:13.426Z,0
2022-12-04T02:08:14.006Z,0
2022-12-04T02:09:27.360Z,0
2022-12-04T02:10:14.619Z,0
2022-12-04T02:11:13.402Z,0
2022-12-04T02:12:14.561Z,0
2022-12-04T02:13:32.645Z,0
2022-12-04T02:14:13.657Z,0
2022-12-04T02:15:32.622Z,0
2022-12-04T02:16:13.129Z,0
2022-12-04T02:17:32.132Z,0
2022-12-04T02:18:13.587Z,0
2022-12-04T02:19:13.119Z,0
2022-12-04T02:20:13.297Z,0
2022-12-04T02:21:13.938Z,0
2022-12-04T02:22:12.792Z,0
2022-12-04T02:23:12.737Z,0
2022-12-04T02:24:12.960Z,0
2022-12-04T02:25:13.050Z,0
2022-12-04T02:26:12.418Z,0
2022-12-04T02:27:13.036Z,0
2022-12-04T02:28:12.962Z,0
2022-12-04T02:29:13.017Z,0
2022-12-04T02:30:13.273Z,0
2022-12-04T02:31:13.421Z,0
2022-12-04T02:32:13.274Z,0
2022-12-04T02:33:12.932Z,0
2022-12-04T02:34:13.857Z,0
2022-12-04T02:35:13.928Z,0
2022-12-04T02:36:13.130Z,0
2022-12-04T02:38:13.694Z,0
2022-12-04T02:39:13.488Z,0
2022-12-04T02:40:12.482Z,0
2022-12-04T02:41:13.460Z,0
2022-12-04T02:42:13.421Z,0
2022-12-04T02:43:12.774Z,0
2022-12-04T02:44:13.712Z,0
2022-12-04T02:46:13.751Z,0
2022-12-04T02:47:13.720Z,0
2022-12-04T02:48:13.434Z,0
2022-12-04T02:49:13.529Z,0
2022-12-04T02:50:13.426Z,0
2022-12-04T02:51:13.236Z,0
2022-12-04T02:52:13.083Z,0
2022-12-04T02:54:13.597Z,0
2022-12-04T02:55:13.767Z,0
2022-12-04T02:56:13.575Z,0
2022-12-04T02:57:13.487Z,0
2022-12-04T02:58:13.344Z,0
2022-12-04T02:59:13.419Z,0
2022-12-04T03:00:13.666Z,0
2022-12-04T03:01:14.055Z,0
2022-12-04T03:02:12.966Z,0
2022-12-04T03:03:14.072Z,0.109
2022-12-04T03:04:12.828Z,0
2022-12-04T03:05:13.838Z,0
2022-12-04T03:06:13.120Z,0
2022-12-04T03:07:13.896Z,0
2022-12-04T03:08:13.632Z,0
2022-12-04T03:09:13.363Z,0
2022-12-04T03:10:13.156Z,0
2022-12-04T03:11:12.948Z,0
2022-12-04T03:12:12.980Z,0
2022-12-04T03:13:14.258Z,0
2022-12-04T03:14:12.877Z,0
2022-12-04T03:15:14.073Z,0
2022-12-04T03:16:13.672Z,0
2022-12-04T03:17:13.799Z,0
2022-12-04T03:18:13.386Z,0
2022-12-04T03:19:12.849Z,0.109
2022-12-04T03:20:13.972Z,0
2022-12-04T03:21:13.238Z,0
2022-12-04T03:22:13.387Z,0
2022-12-04T03:23:12.674Z,0
2022-12-04T03:24:13.565Z,0
2022-12-04T03:25:14.116Z,0
2022-12-04T03:26:13.282Z,0
2022-12-04T03:27:14.072Z,0
2022-12-04T03:28:12.654Z,0
2022-12-04T03:29:13.586Z,0
2022-12-04T03:30:13.984Z,0
2022-12-04T03:31:13.970Z,0
2022-12-04T03:32:13.315Z,0
2022-12-04T03:33:13.588Z,0
2022-12-04T03:34:13.027Z,0
2022-12-04T03:35:14.049Z,0
2022-12-04T03:36:12.757Z,0
2022-12-04T03:37:13.597Z,0
2022-12-04T03:38:12.806Z,0
2022-12-04T03:39:12.847Z,0
2022-12-04T03:40:14.088Z,0
2022-12-04T03:41:12.645Z,0
2022-12-04T03:42:12.636Z,0
2022-12-04T03:43:13.272Z,0
2022-12-04T03:44:13.588Z,0
2022-12-04T03:45:13.532Z,0
2022-12-04T03:46:13.482Z,0
2022-12-04T03:47:13.430Z,0
2022-12-04T03:48:15.818Z,0
2022-12-04T03:49:13.207Z,0
2022-12-04T03:50:14.135Z,0
2022-12-04T03:51:13.578Z,0
2022-12-04T03:52:13.312Z,0
2022-12-04T03:53:13.840Z,0
2022-12-04T03:54:13.434Z,0.109
2022-12-04T03:55:13.461Z,0
2022-12-04T03:56:13.495Z,0
2022-12-04T03:57:13.184Z,0
2022-12-04T03:58:12.931Z,0
2022-12-04T03:59:13.540Z,0
2022-12-04T04:00:14.545Z,0.109
2022-12-04T04:01:14.179Z,0.109
2022-12-04T04:02:13.375Z,0
2022-12-04T04:03:12.896Z,0
2022-12-04T04:04:18.756Z,0
2022-12-04T04:05:13.831Z,0.109
2022-12-04T04:06:18.076Z,0
2022-12-04T04:07:13.695Z,0.109
2022-12-04T04:08:13.295Z,0
2022-12-04T04:09:13.234Z,0
2022-12-04T04:10:12.991Z,0
2022-12-04T04:11:13.329Z,0
2022-12-04T04:12:13.571Z,0
2022-12-04T04:13:13.169Z,0
2022-12-04T04:14:18.152Z,0.119
2022-12-04T04:15:13.308Z,0
2022-12-04T04:16:13.434Z,0
2022-12-04T04:17:13.673Z,0
2022-12-04T04:18:13.427Z,0
2022-12-04T04:19:13.052Z,0.109
2022-12-04T04:20:13.472Z,0
2022-12-04T04:21:12.473Z,0
2022-12-04T04:22:13.896Z,0
2022-12-04T04:23:13.174Z,0.109
2022-12-04T04:24:13.055Z,0.109
2022-12-04T04:25:13.472Z,0.109
2022-12-04T04:26:13.245Z,0.109
2022-12-04T04:27:12.844Z,0.109
2022-12-04T04:28:13.059Z,0
2022-12-04T04:29:13.628Z,0.219
2022-12-04T04:30:13.570Z,0
2022-12-04T04:31:13.575Z,0.109
2022-12-04T04:32:13.513Z,0.109
2022-12-04T04:33:13.237Z,0.340
2022-12-04T04:34:13.638Z,0
2022-12-04T04:35:13.936Z,0
2022-12-04T04:36:13.967Z,0.109
2022-12-04T04:37:13.043Z,0.109
2022-12-04T04:38:13.643Z,0
2022-12-04T04:39:13.687Z,0
2022-12-04T04:40:13.604Z,0
2022-12-04T04:41:13.170Z,0
2022-12-04T04:42:13.266Z,0
2022-12-04T04:43:13.203Z,0
2022-12-04T04:44:12.849Z,0
2022-12-04T04:45:12.619Z,0.109
2022-12-04T04:46:13.403Z,0.109
2022-12-04T04:47:13.569Z,0.109
2022-12-04T04:48:13.585Z,0.340
2022-12-04T04:49:13.344Z,0.109
2022-12-04T04:50:13.132Z,0
2022-12-04T04:51:12.771Z,0
2022-12-04T04:52:13.421Z,0
2022-12-04T04:53:13.811Z,0
2022-12-04T04:54:13.611Z,0
2022-12-04T04:55:13.473Z,0.109
2022-12-04T04:56:13.270Z,0.109
2022-12-04T04:57:13.195Z,0.109
2022-12-04T04:58:12.740Z,0
2022-12-04T04:59:13.551Z,0
2022-12-04T05:00:13.526Z,0
2022-12-04T05:01:12.822Z,0.219
2022-12-04T05:02:13.472Z,0.109
2022-12-04T05:03:13.529Z,0.219
2022-12-04T05:04:14.223Z,0.340
2022-12-04T05:05:13.552Z,0
2022-12-04T05:06:13.033Z,0.219
2022-12-04T05:07:13.610Z,0.340
2022-12-04T05:08:13.294Z,0.109
2022-12-04T05:09:13.175Z,0.109
2022-12-04T05:10:13.191Z,0
2022-12-04T05:11:12.770Z,0.340
2022-12-04T05:12:13.981Z,0.449
2022-12-04T05:13:13.309Z,0.560
2022-12-04T05:14:13.287Z,0.109
2022-12-04T05:15:12.880Z,0.109
2022-12-04T05:16:13.787Z,0.219
2022-12-04T05:17:13.530Z,0.109
2022-12-04T05:18:13.750Z,0.109
2022-12-04T05:19:13.498Z,0.449
2022-12-04T05:20:13.237Z,0.560
2022-12-04T05:21:13.072Z,0.109
2022-12-04T05:22:13.633Z,0.560
2022-12-04T05:23:13.496Z,0.560
2022-12-04T05:24:13.827Z,0.449
2022-12-04T05:25:14.312Z,0.340
2022-12-04T05:26:13.867Z,0.219
2022-12-04T05:27:13.398Z,0.219
2022-12-04T05:28:13.397Z,0.340
2022-12-04T05:29:12.817Z,0.219
2022-12-04T05:30:14.446Z,0
2022-12-04T05:31:13.215Z,0.109
2022-12-04T05:32:13.873Z,0.109
2022-12-04T05:33:13.426Z,0.560
2022-12-04T05:34:13.455Z,0
2022-12-04T05:35:14.038Z,0.449
2022-12-04T05:36:13.444Z,0
2022-12-04T05:37:13.616Z,0.370
2022-12-04T05:38:13.255Z,0.200
2022-12-04T05:39:13.131Z,0.370
2022-12-04T05:40:13.490Z,0
2022-12-04T05:41:12.341Z,0.519
2022-12-04T05:42:14.228Z,0.490
2022-12-04T05:43:13.054Z,0.449
2022-12-04T05:44:13.756Z,0.310
2022-12-04T05:45:13.754Z,0.239
2022-12-04T05:46:13.507Z,0.219
2022-12-04T05:47:14.100Z,0.340
2022-12-04T05:48:13.201Z,0.219
2022-12-04T05:49:12.808Z,0.449
2022-12-04T05:50:13.528Z,0.109
2022-12-04T05:51:13.825Z,0
2022-12-04T05:52:13.056Z,0.340
2022-12-04T05:53:13.487Z,0.219
2022-12-04T05:54:13.585Z,0.449
2022-12-04T05:55:13.668Z,0.219
2022-12-04T05:56:13.155Z,0.109
2022-12-04T05:57:13.515Z,0.109
2022-12-04T05:58:13.508Z,0.109
2022-12-04T05:59:12.939Z,0.219
2022-12-04T06:00:14.114Z,0.340
2022-12-04T06:01:13.100Z,0.109
2022-12-04T06:02:14.465Z,0.219
2022-12-04T06:03:13.592Z,0
2022-12-04T06:04:13.747Z,0.449
2022-12-04T06:05:14.126Z,0
2022-12-04T06:06:19.268Z,0
2022-12-04T06:07:14.300Z,0.340
2022-12-04T06:08:13.354Z,0.219
2022-12-04T06:09:13.473Z,0
2022-12-04T06:10:13.671Z,0.109
2022-12-04T06:11:14.194Z,0.449
2022-12-04T06:12:13.519Z,0.219
2022-12-04T06:13:13.310Z,0.449
2022-12-04T06:14:13.163Z,0.219
2022-12-04T06:15:13.690Z,0.109
2022-12-04T06:16:13.819Z,0.560
2022-12-04T06:17:13.663Z,0.219
2022-12-04T06:19:13.457Z,0.340
2022-12-04T06:20:13.782Z,0.109
2022-12-04T06:21:13.205Z,0.219
2022-12-04T06:22:13.707Z,0.109
2022-12-04T06:23:12.898Z,0.340
2022-12-04T06:24:13.417Z,0.219
2022-12-04T06:25:13.995Z,0.340
2022-12-04T06:26:13.539Z,0.340
2022-12-04T06:27:28.455Z,0.219
2022-12-04T06:28:13.861Z,0
2022-12-04T06:29:13.767Z,0.219
2022-12-04T06:30:14.322Z,0
2022-12-04T06:31:14.068Z,0
2022-12-04T06:32:17.978Z,0
2022-12-04T06:33:13.688Z,0
2022-12-04T06:34:13.548Z,0
2022-12-04T06:35:18.516Z,0
2022-12-04T06:36:13.317Z,0
2022-12-04T06:37:13.475Z,0
2022-12-04T06:38:13.205Z,0
2022-12-04T06:39:18.434Z,0
2022-12-04T06:40:13.720Z,0
2022-12-04T06:41:13.968Z,0
2022-12-04T06:42:13.629Z,0
2022-12-04T06:43:21.092Z,0
2022-12-04T06:44:13.665Z,0
2022-12-04T06:45:14.496Z,0
2022-12-04T06:46:13.347Z,0
2022-12-04T06:47:13.739Z,0
2022-12-04T06:48:13.865Z,0
2022-12-04T06:49:13.509Z,0
2022-12-04T06:50:13.873Z,0
2022-12-04T06:51:13.974Z,0.170
2022-12-04T06:52:13.795Z,0.219
2022-12-04T06:53:13.700Z,0
2022-12-04T06:54:13.370Z,0.560
2022-12-04T06:55:13.902Z,0.680
2022-12-04T06:56:13.751Z,0.769
2022-12-04T06:57:27.771Z,0.449
2022-12-04T06:58:13.240Z,1.360
2022-12-04T06:59:13.160Z,1.899
2022-12-04T07:00:13.713Z,2.25
2022-12-04T07:01:13.213Z,2.039
2022-12-04T07:02:13.944Z,3.109
2022-12-04T07:03:28.496Z,4.25
2022-12-04T07:04:13.898Z,3.940
2022-12-04T07:05:13.891Z,4.789
2022-12-04T07:06:13.830Z,6.059
2022-12-04T07:07:13.845Z,6.400
2022-12-04T07:08:13.741Z,7.119
2022-12-04T07:09:13.833Z,8.510
2022-12-04T07:10:13.841Z,8.840
2022-12-04T07:11:13.613Z,10.22
2022-12-04T07:12:13.840Z,11.43
2022-12-04T07:13:13.698Z,12.02
2022-12-04T07:14:13.256Z,13.80
2022-12-04T07:15:14.162Z,14.31
2022-12-04T07:16:13.088Z,16.22
2022-12-04T07:17:14.512Z,17.18
2022-12-04T07:18:13.384Z,19.11
2022-12-04T07:19:13.119Z,20.79
2022-12-04T07:20:14.001Z,22.89
2022-12-04T07:21:13.253Z,25.43
2022-12-04T07:22:13.918Z,27.5
2022-12-04T07:23:14.210Z,29.70
2022-12-04T07:24:12.806Z,31.95
2022-12-04T07:25:13.757Z,33.72
2022-12-04T07:26:13.848Z,35.22
2022-12-04T07:27:14.008Z,37.29
2022-12-04T07:28:13.092Z,39.59
2022-12-04T07:29:12.976Z,42.40
2022-12-04T07:30:15.793Z,46.09
2022-12-04T07:31:13.653Z,48.90
2022-12-04T07:32:13.216Z,51.59
2022-12-04T07:33:13.133Z,54.09
2022-12-04T07:34:13.019Z,56.29
2022-12-04T07:35:13.948Z,58.90
2022-12-04T07:36:12.813Z,61.83
2022-12-04T07:37:14.000Z,65.09
2022-12-04T07:38:14.307Z,67.58
2022-12-04T07:40:13.817Z,70.72
2022-12-04T07:41:13.220Z,73.5
2022-12-04T07:42:14.185Z,77.40
2022-12-04T07:43:13.412Z,80.87
2022-12-04T07:44:13.830Z,83.5
2022-12-04T07:45:14.122Z,86.98
2022-12-04T07:46:14.043Z,87.76
2022-12-04T07:47:14.367Z,88.48
2022-12-04T07:48:13.659Z,90.23
2022-12-04T07:49:13.646Z,90.91
2022-12-04T07:50:13.728Z,91.04
2022-12-04T07:51:14.062Z,91.34
2022-12-04T07:52:13.997Z,93.40
2022-12-04T07:53:13.390Z,94.66
2022-12-04T07:54:13.433Z,96.48
2022-12-04T07:55:17.512Z,97.41
2022-12-04T07:56:13.808Z,98.41
2022-12-04T07:57:14.371Z,99.52
2022-12-04T07:58:13.090Z,98.06
2022-12-04T07:59:14.187Z,98.77
2022-12-04T08:00:14.004Z,99.55
2022-12-04T08:01:14.001Z,102.0
2022-12-04T08:02:13.718Z,105.3
2022-12-04T08:03:13.599Z,110.9
2022-12-04T08:04:13.724Z,117.4
2022-12-04T08:05:14.790Z,123.3
2022-12-04T08:06:14.114Z,127.1
2022-12-04T08:07:13.824Z,133.1
2022-12-04T08:08:13.861Z,140.6
2022-12-04T08:09:14.355Z,146.6
2022-12-04T08:10:13.858Z,149.8
2022-12-04T08:11:13.348Z,155.5
2022-12-04T08:12:13.417Z,164.6
2022-12-04T08:13:13.724Z,168.5
2022-12-04T08:14:14.449Z,168.2
2022-12-04T08:15:13.922Z,167.5
2022-12-04T08:16:14.181Z,168
2022-12-04T08:17:13.345Z,175
2022-12-04T08:18:13.277Z,187
2022-12-04T08:19:13.401Z,197.5
2022-12-04T08:20:13.553Z,203.6
2022-12-04T08:21:13.040Z,209.3
2022-12-04T08:22:13.671Z,215.8
2022-12-04T08:23:13.131Z,220.1
2022-12-04T08:24:14.418Z,222.8
2022-12-04T08:25:14.273Z,228.8
2022-12-04T08:26:13.552Z,239
2022-12-04T08:27:14.441Z,249.5
2022-12-04T08:28:13.868Z,256
2022-12-04T08:29:14.661Z,263.6
2022-12-04T08:30:13.142Z,265.3
2022-12-04T08:31:13.581Z,265.2
2022-12-04T08:32:14.059Z,272
2022-12-04T08:33:13.277Z,281.8
2022-12-04T08:34:13.740Z,287.7
2022-12-04T08:35:14.140Z,292.5
2022-12-04T08:36:13.106Z,301
2022-12-04T08:37:13.506Z,310.7
2022-12-04T08:38:13.787Z,311.4
2022-12-04T08:39:13.951Z,309.2
2022-12-04T08:40:14.323Z,307.9
2022-12-04T08:41:13.319Z,309
2022-12-04T08:42:13.018Z,314.3
2022-12-04T08:43:13.828Z,321.3
2022-12-04T08:44:14.007Z,327.7
2022-12-04T08:45:15.619Z,330.7
2022-12-04T08:46:13.990Z,335
2022-12-04T08:47:13.685Z,340.7
2022-12-04T08:48:14.093Z,343.6
2022-12-04T08:49:13.979Z,348.8
2022-12-04T08:50:14.347Z,356.2
2022-12-04T08:51:13.641Z,360.5
2022-12-04T08:52:13.619Z,364.3
2022-12-04T08:53:13.489Z,366.0
2022-12-04T08:54:13.978Z,363.1
2022-12-04T08:55:13.325Z,359.5
2022-12-04T08:56:13.411Z,352
2022-12-04T08:57:13.820Z,341
2022-12-04T08:58:13.717Z,331.5
2022-12-04T08:59:13.787Z,324.3
2022-12-04T09:00:14.912Z,323.2
2022-12-04T09:01:13.277Z,323
2022-12-04T09:02:12.903Z,319
2022-12-04T09:03:14.103Z,316.1
2022-12-04T09:04:13.829Z,312.2
2022-12-04T09:05:13.253Z,310.5
2022-12-04T09:06:13.298Z,309.4
2022-12-04T09:07:13.515Z,312.2
2022-12-04T09:08:13.587Z,323
2022-12-04T09:09:13.638Z,340
2022-12-04T09:10:13.963Z,358
2022-12-04T09:11:13.764Z,369.2
2022-12-04T09:12:13.697Z,373.5
2022-12-04T09:13:14.063Z,379.2
2022-12-04T09:14:13.986Z,383.7
2022-12-04T09:15:13.002Z,396
2022-12-04T09:16:27.232Z,414
2022-12-04T09:17:14.811Z,432
2022-12-04T09:18:14.063Z,444
2022-12-04T09:19:13.674Z,454.6
2022-12-04T09:20:13.951Z,459.8
2022-12-04T09:21:13.751Z,473
2022-12-04T09:22:32.752Z,510
2022-12-04T09:23:14.202Z,542
2022-12-04T09:24:28.205Z,567
2022-12-04T09:25:13.608Z,583
2022-12-04T09:26:14.466Z,610
2022-12-04T09:27:15.067Z,639
2022-12-04T09:28:27.986Z,657
2022-12-04T09:29:13.282Z,666
2022-12-04T09:30:33.168Z,630
2022-12-04T09:31:14.160Z,650
2022-12-04T09:32:13.149Z,710
2022-12-04T09:33:13.603Z,750
2022-12-04T09:34:13.558Z,781
2022-12-04T09:35:13.498Z,802
2022-12-04T09:36:13.566Z,816
2022-12-04T09:37:14.173Z,820.6
2022-12-04T09:38:13.690Z,812
2022-12-04T09:39:13.915Z,800.9
2022-12-04T09:40:38.118Z,802.4
2022-12-04T09:41:13.931Z,799.3
2022-12-04T09:42:12.723Z,798
2022-12-04T09:43:13.739Z,760
2022-12-04T09:44:13.688Z,781.2
2022-12-04T09:45:13.519Z,766
2022-12-04T09:46:13.592Z,770
2022-12-04T09:47:13.953Z,830
2022-12-04T09:48:13.227Z,886
2022-12-04T09:49:13.299Z,907
2022-12-04T09:51:12.485Z,820
2022-12-04T09:52:20.312Z,790
2022-12-04T09:53:14.024Z,813.7
2022-12-04T09:54:12.960Z,833
2022-12-04T09:55:12.867Z,870
2022-12-04T09:56:13.226Z,860
2022-12-04T09:57:13.947Z,880
2022-12-04T09:58:13.919Z,903.7
2022-12-04T09:59:13.509Z,890
2022-12-04T10:01:13.718Z,893
2022-12-04T10:03:13.762Z,920
2022-12-04T10:04:13.915Z,936.4
2022-12-04T10:05:13.572Z,928
2022-12-04T10:06:14.011Z,912
2022-12-04T10:07:13.323Z,900
2022-12-04T10:08:14.019Z,893
2022-12-04T10:09:13.489Z,840
2022-12-04T10:10:13.692Z,780
2022-12-04T10:11:14.414Z,720
2022-12-04T10:12:13.655Z,630
2022-12-04T10:13:14.084Z,570
2022-12-04T10:14:13.366Z,520
2022-12-04T10:15:13.721Z,495
2022-12-04T10:16:14.293Z,486.3
2022-12-04T10:17:13.886Z,477
2022-12-04T10:18:13.235Z,472.5
2022-12-04T10:19:13.607Z,450
2022-12-04T10:20:14.221Z,421
2022-12-04T10:21:13.360Z,419
2022-12-04T10:22:12.799Z,440
2022-12-04T10:23:14.309Z,490
2022-12-04T10:24:13.960Z,520
2022-12-04T10:25:12.819Z,562
2022-12-04T10:26:14.442Z,590
2022-12-04T10:27:14.144Z,630
2022-12-04T10:28:12.974Z,678
2022-12-04T10:29:13.462Z,660
2022-12-04T10:30:14.067Z,641
2022-12-04T10:31:13.767Z,690
2022-12-04T10:32:14.269Z,780
2022-12-04T10:33:13.791Z,840
2022-12-04T10:34:13.205Z,920
2022-12-04T10:35:13.756Z,972
2022-12-04T10:36:14.131Z,930
2022-12-04T10:37:13.560Z,870
2022-12-04T10:38:14.421Z,817
2022-12-04T10:39:14.380Z,821
2022-12-04T10:40:14.203Z,840
2022-12-04T10:41:15.229Z,853
2022-12-04T10:42:13.113Z,862.7
2022-12-04T10:43:13.244Z,880
2022-12-04T10:44:13.345Z,920
2022-12-04T10:45:13.955Z,960
2022-12-04T10:46:14.850Z,1020
2022-12-04T10:47:14.150Z,1100
2022-12-04T10:48:13.886Z,1240
2022-12-04T10:49:13.534Z,1100
2022-12-04T10:50:14.749Z,1100
2022-12-04T10:51:13.755Z,1227
2022-12-04T10:52:13.891Z,1100
2022-12-04T10:53:14.100Z,1020
2022-12-04T10:54:13.779Z,960
2022-12-04T10:55:13.961Z,960
2022-12-04T10:56:14.115Z,1100
2022-12-04T10:57:14.348Z,1200
2022-12-04T10:58:14.005Z,1337.
2022-12-04T10:59:13.731Z,1334
2022-12-04T11:00:14.776Z,1340
2022-12-04T11:01:13.378Z,1400
2022-12-04T11:02:13.887Z,1560
2022-12-04T11:03:13.571Z,1540
2022-12-04T11:04:13.554Z,1460
2022-12-04T11:05:13.387Z,1460
2022-12-04T11:06:13.377Z,1480
2022-12-04T11:07:13.964Z,1300
2022-12-04T11:08:18.210Z,1310
2022-12-04T11:09:12.955Z,1293
2022-12-04T11:10:14.300Z,1310
2022-12-04T11:11:13.769Z,1342
2022-12-04T11:12:14.137Z,1320
2022-12-04T11:13:13.476Z,1280
2022-12-04T11:14:13.912Z,1250
2022-12-04T11:15:14.852Z,1247
2022-12-04T11:16:14.763Z,1241
2022-12-04T11:17:13.173Z,1200
2022-12-04T11:18:13.345Z,1162
2022-12-04T11:19:13.363Z,1120
2022-12-04T11:20:13.902Z,1087
2022-12-04T11:21:14.512Z,1091
2022-12-04T11:22:13.990Z,1130
2022-12-04T11:23:18.570Z,1172
2022-12-04T11:24:12.926Z,1183.
2022-12-04T11:25:18.382Z,1140
2022-12-04T11:26:14.192Z,1050
2022-12-04T11:27:13.797Z,1010
2022-12-04T11:28:27.731Z,1014
2022-12-04T11:29:18.729Z,1026
2022-12-04T11:30:14.966Z,1030
2022-12-04T11:31:18.725Z,1057.
2022-12-04T11:32:13.310Z,1041
2022-12-04T11:33:22.286Z,1009
2022-12-04T11:34:13.423Z,999
2022-12-04T11:35:14.704Z,1008
2022-12-04T11:36:14.137Z,1020
2022-12-04T11:37:22.154Z,1058
2022-12-04T11:38:13.849Z,1030
2022-12-04T11:39:13.611Z,1013
2022-12-04T11:40:14.655Z,1036
2022-12-04T11:41:14.441Z,1051
2022-12-04T11:42:13.618Z,1070
2022-12-04T11:43:27.281Z,1130
2022-12-04T11:44:13.818Z,1200
2022-12-04T11:45:13.538Z,1222
2022-12-04T11:46:14.234Z,1180
2022-12-04T11:47:13.696Z,1150
2022-12-04T11:48:13.869Z,1143.
2022-12-04T11:49:13.471Z,1150
2022-12-04T11:50:13.979Z,1190
2022-12-04T11:51:27.533Z,1200
2022-12-04T11:52:13.778Z,1350
2022-12-04T11:53:13.721Z,1430
2022-12-04T11:54:14.382Z,1472
2022-12-04T11:55:14.957Z,1450
2022-12-04T11:56:14.409Z,1380
2022-12-04T11:57:14.416Z,1321
2022-12-04T11:58:14.653Z,1300
2022-12-04T11:59:14.336Z,1459
2022-12-04T12:00:14.094Z,1430
2022-12-04T12:01:14.572Z,1360
2022-12-04T12:02:13.606Z,1260
2022-12-04T12:03:13.956Z,1200
2022-12-04T12:04:14.263Z,1208
2022-12-04T12:05:13.509Z,1190
2022-12-04T12:06:13.857Z,1110
2022-12-04T12:07:13.780Z,1050
2022-12-04T12:08:14.104Z,1010
2022-12-04T12:09:14.875Z,940
2022-12-04T12:10:13.804Z,870
2022-12-04T12:11:13.894Z,845
2022-12-04T12:12:14.566Z,800
2022-12-04T12:13:14.854Z,740
2022-12-04T12:14:14.000Z,700
2022-12-04T12:15:36.897Z,675
2022-12-04T12:16:13.507Z,690
2022-12-04T12:17:14.757Z,720
2022-12-04T12:18:16.454Z,724.2
2022-12-04T12:19:14.165Z,728.2
2022-12-04T12:20:14.163Z,727.7
2022-12-04T12:21:13.404Z,725.5
2022-12-04T12:22:13.710Z,700
2022-12-04T12:23:13.668Z,650
2022-12-04T12:24:13.639Z,627.2
2022-12-04T12:25:14.266Z,616
2022-12-04T12:26:13.759Z,570
2022-12-04T12:27:13.324Z,520
2022-12-04T12:28:13.909Z,500
2022-12-04T12:29:13.231Z,517
2022-12-04T12:30:14.015Z,519
2022-12-04T12:31:13.879Z,499
2022-12-04T12:32:13.401Z,503
2022-12-04T12:33:13.937Z,525
2022-12-04T12:34:13.516Z,536.7
2022-12-04T12:35:14.734Z,524
2022-12-04T12:36:14.356Z,529
2022-12-04T12:37:14.162Z,530
2022-12-04T12:38:13.301Z,516
2022-12-04T12:39:14.004Z,511.5
2022-12-04T12:40:13.936Z,522
2022-12-04T12:41:13.679Z,532.7
2022-12-04T12:42:13.489Z,542
2022-12-04T12:43:14.140Z,546.8
2022-12-04T12:44:13.745Z,549
2022-12-04T12:45:14.720Z,560
2022-12-04T12:46:13.178Z,599
2022-12-04T12:48:13.873Z,632
2022-12-04T12:49:14.853Z,646.4
2022-12-04T12:50:14.416Z,645.7
2022-12-04T12:51:29.568Z,647.0
2022-12-04T12:52:13.863Z,638
2022-12-04T12:53:13.823Z,631
2022-12-04T12:54:14.867Z,680
2022-12-04T12:55:14.120Z,729
2022-12-04T12:56:13.581Z,720
2022-12-04T12:57:13.737Z,660
2022-12-04T12:58:13.861Z,629
2022-12-04T12:59:14.389Z,634
2022-12-04T13:00:14.806Z,641.7
2022-12-04T13:01:14.311Z,643.5
2022-12-04T13:02:13.911Z,644
2022-12-04T13:03:13.435Z,621
2022-12-04T13:04:12.984Z,610.7
2022-12-04T13:05:14.660Z,600
2022-12-04T13:06:14.050Z,586.5
2022-12-04T13:07:14.437Z,600
2022-12-04T13:08:13.477Z,620
2022-12-04T13:09:13.601Z,616
2022-12-04T13:10:14.693Z,603
2022-12-04T13:11:14.847Z,594
2022-12-04T13:12:13.674Z,590.2
2022-12-04T13:13:14.254Z,583.5
2022-12-04T13:14:14.270Z,567
2022-12-04T13:15:14.973Z,530
2022-12-04T13:16:13.487Z,510
2022-12-04T13:17:14.441Z,515
2022-12-04T13:18:14.177Z,526.5
2022-12-04T13:19:13.957Z,522.0
2022-12-04T13:20:14.604Z,518.2
2022-12-04T13:21:13.991Z,510.6
2022-12-04T13:22:13.917Z,508.8
2022-12-04T13:23:13.109Z,513.5
2022-12-04T13:24:13.513Z,511.7
2022-12-04T13:25:15.018Z,499
2022-12-04T13:26:14.514Z,487.3
2022-12-04T13:27:13.894Z,491
2022-12-04T13:28:14.840Z,501.1
2022-12-04T13:29:14.810Z,491
2022-12-04T13:30:14.302Z,473
2022-12-04T13:31:14.475Z,472.8
2022-12-04T13:32:14.043Z,476.1
2022-12-04T13:33:14.610Z,462
2022-12-04T13:34:15.771Z,443
2022-12-04T13:35:15.009Z,436.9
2022-12-04T13:36:14.012Z,441.7
2022-12-04T13:37:13.512Z,438
2022-12-04T13:38:14.179Z,422
2022-12-04T13:39:15.055Z,411.8
2022-12-04T13:40:14.514Z,417.7
2022-12-04T13:41:14.654Z,424.1
2022-12-04T13:42:14.906Z,420.7
2022-12-04T13:43:13.630Z,416.8
2022-12-04T13:44:13.789Z,415.3
2022-12-04T13:45:14.594Z,413
2022-12-04T13:46:18.592Z,433
2022-12-04T13:47:14.721Z,444
2022-12-04T13:48:18.913Z,438
2022-12-04T13:49:13.971Z,422
2022-12-04T13:50:19.562Z,409.5
2022-12-04T13:51:13.651Z,408.7
2022-12-04T13:52:19.430Z,414.0
2022-12-04T13:53:14.893Z,413
2022-12-04T13:54:19.185Z,407
2022-12-04T13:55:15.226Z,381